createdAt,value
2022-12-08T00:02:01.186Z,2.95
2022-12-08T00:04:27.907Z,3.03
2022-12-08T00:07:12.754Z,3.25
2022-12-08T00:09:41.705Z,3.28
2022-12-08T00:16:13.041Z,3.19
2022-12-08T00:18:39.739Z,3.11
2022-12-08T00:21:06.326Z,2.99
2022-12-08T00:23:32.898Z,3.01
2022-12-08T00:26:04.038Z,2.98
2022-12-08T00:28:32.441Z,3.02
2022-12-08T00:34:00.980Z,3.23
2022-12-08T00:39:19.054Z,3.34
2022-12-08T00:45:48.569Z,3.34
2022-12-08T00:48:15.580Z,3.24
2022-12-08T00:50:42.127Z,3.08
2022-12-08T00:53:08.691Z,3.03
2022-12-08T00:55:35.314Z,3.01
2022-12-08T00:58:01.996Z,2.91
2022-12-08T01:00:47.298Z,3.05
2022-12-08T01:03:13.925Z,3.10
2022-12-08T01:05:40.515Z,3.04
2022-12-08T01:08:08.214Z,2.81
2022-12-08T01:16:51.048Z,2.52
2022-12-08T01:19:18.081Z,2.24
2022-12-08T01:21:46.197Z,2.51
2022-12-08T01:24:14.783Z,2.53
2022-12-08T01:26:41.612Z,2.61
2022-12-08T01:31:49.711Z,1.88
2022-12-08T01:34:19.223Z,1.88
2022-12-08T01:36:45.830Z,1.81
2022-12-08T01:39:17.955Z,1.95
2022-12-08T01:41:45.716Z,1.90
2022-12-08T01:45:02.918Z,1.89
2022-12-08T01:56:44.326Z,2.04
2022-12-08T01:59:25.189Z,1.74
2022-12-08T02:01:52.488Z,1.34
2022-12-08T02:04:40.752Z,1.35
2022-12-08T02:07:10.051Z,1.53
2022-12-08T02:09:38.716Z,1.52
2022-12-08T02:12:07.244Z,1.54
2022-12-08T02:15:23.703Z,1.70
2022-12-08T02:23:31.810Z,1.79
2022-12-08T02:26:36.144Z,1.42
2022-12-08T02:29:14.771Z,1.45
2022-12-08T02:32:26.718Z,1.51
2022-12-08T02:35:05.270Z,1.62
2022-12-08T02:38:00.972Z,1.57
2022-12-08T02:40:57.055Z,1.77
2022-12-08T02:43:39.664Z,1.98
2022-12-08T02:46:11.223Z,2.16
2022-12-08T02:48:59.762Z,2.27
2022-12-08T02:52:40.103Z,2.39
2022-12-08T03:10:13.918Z,2.44
2022-12-08T03:12:48.132Z,2.54
2022-12-08T03:15:18.400Z,2.65
2022-12-08T03:17:51.306Z,2.60
2022-12-08T03:20:21.489Z,2.32
2022-12-08T03:22:50.661Z,2.44
2022-12-08T03:29:23.795Z,2.60
2022-12-08T03:31:54.778Z,2.73
2022-12-08T03:48:33.144Z,2.82
2022-12-08T03:51:39.186Z,2.85
2022-12-08T03:54:49.460Z,2.96
2022-12-08T03:57:19.970Z,2.92
2022-12-08T04:11:09.082Z,3.06
2022-12-08T04:13:37.534Z,2.84
2022-12-08T04:16:10.277Z,2.92
2022-12-08T04:19:02.734Z,3.09
2022-12-08T04:21:29.316Z,3.22
2022-12-08T04:24:06.294Z,3.19
2022-12-08T04:26:35.698Z,2.99
2022-12-08T04:29:02.290Z,3.16
2022-12-08T04:31:28.909Z,3.33
2022-12-08T04:34:04.741Z,3.44
2022-12-08T04:42:10.898Z,3.27
2022-12-08T04:44:37.451Z,3.28
2022-12-08T04:47:04.364Z,3.33
2022-12-08T04:49:50.804Z,3.38
2022-12-08T04:52:17.411Z,3.25
2022-12-08T04:54:43.949Z,3.30
2022-12-08T04:57:10.505Z,3.46
2022-12-08T04:59:37.093Z,3.58
2022-12-08T05:02:03.810Z,3.54
2022-12-08T05:04:30.644Z,3.31
2022-12-08T05:06:57.520Z,3.51
2022-12-08T05:09:52.029Z,3.52
2022-12-08T05:12:38.790Z,3.54
2022-12-08T05:15:06.059Z,3.51
2022-12-08T05:17:32.651Z,3.54
2022-12-08T05:19:59.185Z,3.70
2022-12-08T05:22:25.726Z,3.79
2022-12-08T05:24:52.263Z,3.83
2022-12-08T05:27:18.786Z,3.89
2022-12-08T05:29:45.324Z,3.87
2022-12-08T05:32:11.855Z,3.78
2022-12-08T05:34:38.534Z,3.63
2022-12-08T05:37:05.075Z,3.77
2022-12-08T05:39:31.626Z,3.71
2022-12-08T05:41:59.569Z,3.39
2022-12-08T05:44:41.590Z,3.56
2022-12-08T05:47:08.130Z,3.77
2022-12-08T05:49:34.657Z,3.71
2022-12-08T05:52:01.178Z,3.71
2022-12-08T05:54:45.479Z,3.64
2022-12-08T05:57:37.791Z,3.60
2022-12-08T06:00:05.626Z,3.70
2022-12-08T06:02:35.822Z,3.76
2022-12-08T06:05:02.792Z,3.74
2022-12-08T06:07:29.338Z,3.87
2022-12-08T06:25:40.671Z,4.09
2022-12-08T06:28:07.372Z,4.03
2022-12-08T06:30:50.731Z,3.74
2022-12-08T06:33:17.143Z,3.83
2022-12-08T06:35:43.692Z,3.78
2022-12-08T06:38:10.247Z,3.84
2022-12-08T06:40:36.810Z,3.73
2022-12-08T08:27:28.769Z,5.28
2022-12-08T08:29:55.324Z,5.80
2022-12-08T08:32:21.902Z,5.79
2022-12-08T08:34:48.504Z,5.39
2022-12-08T08:37:15.588Z,5.42
2022-12-08T08:39:43.133Z,5.74
2022-12-08T08:42:09.740Z,5.77
2022-12-08T08:44:37.482Z,5.50
2022-12-08T08:47:04.045Z,5.71
2022-12-08T08:49:30.647Z,5.76
2022-12-08T08:51:57.259Z,6.13
2022-12-08T08:54:35.826Z,6.07
2022-12-08T09:57:26.981Z,6.25
2022-12-08T09:59:59.916Z,6.53
2022-12-08T10:02:30.294Z,6.62
2022-12-08T10:04:58.754Z,6.68
2022-12-08T10:07:34.375Z,6.37
2022-12-08T10:42:53.492Z,6.99
2022-12-08T10:45:41.687Z,7.28
2022-12-08T10:48:25.457Z,7.38
2022-12-08T10:50:57.093Z,6.97
2022-12-08T10:53:26.547Z,6.15
2022-12-08T10:56:28.701Z,5.70
2022-12-08T11:30:36.903Z,5.27
2022-12-08T11:33:12.287Z,4.72
2022-12-08T11:35:41.624Z,4.36
2022-12-08T11:38:26.629Z,4.32
2022-12-08T11:41:07.518Z,4.68
2022-12-08T11:49:05.593Z,4.44
2022-12-08T11:51:34.906Z,5.08
2022-12-08T11:54:18.803Z,5.29
2022-12-08T11:56:52.854Z,5.58
2022-12-08T11:59:29.057Z,5.22
2022-12-08T12:01:59.824Z,6.00
2022-12-08T12:05:04.157Z,6.06
2022-12-08T12:07:58.852Z,5.86
2022-12-08T12:10:35.278Z,6.10
2022-12-08T12:13:23.545Z,5.46
2022-12-08T12:30:18.986Z,4.94
2022-12-08T12:32:58.301Z,5.77
2022-12-08T12:48:40.756Z,5.69
2022-12-08T12:51:44.878Z,5.38
2022-12-08T12:54:29.328Z,5.58
2022-12-08T12:57:17.472Z,5.08
2022-12-08T13:00:07.236Z,4.83
2022-12-08T13:02:39.988Z,5.03
2022-12-08T13:05:29.069Z,4.87
2022-12-08T13:07:59.668Z,5.05
2022-12-08T13:10:29.945Z,5.35
2022-12-08T13:13:10.364Z,5.01
2022-12-08T13:15:37.038Z,5.00
2022-12-08T13:18:05.232Z,5.25
2022-12-08T13:20:42.087Z,5.47
2022-12-08T13:23:46.945Z,5.63
2022-12-08T13:26:18.008Z,6.17
2022-12-08T13:34:12.909Z,6.20
2022-12-08T13:36:56.468Z,5.73
2022-12-08T13:42:03.676Z,5.37
2022-12-08T13:47:34.784Z,5.59
2022-12-08T13:59:26.931Z,4.93
2022-12-08T14:01:54.885Z,5.02
2022-12-08T14:04:53.931Z,5.17
2022-12-08T14:07:12.031Z,5.66
2022-12-08T14:09:40.260Z,5.69
2022-12-08T14:12:17.485Z,5.15
2022-12-08T14:15:02.608Z,5.21
2022-12-08T14:23:10.112Z,5.20
2022-12-08T14:42:02.865Z,5.32
2022-12-08T14:44:32.194Z,5.25
2022-12-08T14:47:07.279Z,5.58
2022-12-08T14:49:39.358Z,5.81
2022-12-08T14:52:12.428Z,5.54
2022-12-08T14:54:40.051Z,5.70
2022-12-08T14:57:08.040Z,5.76
2022-12-08T14:59:37.892Z,5.75
2022-12-08T15:02:21.818Z,5.83
2022-12-08T15:05:29.192Z,4.60
2022-12-08T15:08:02.481Z,4.49
2022-12-08T15:10:32.091Z,4.98
2022-12-08T15:27:40.924Z,4.72
2022-12-08T15:30:15.670Z,5.07
2022-12-08T15:32:43.055Z,4.75
2022-12-08T15:35:18.739Z,4.56
2022-12-08T15:54:11.524Z,4.60
2022-12-08T15:57:17.232Z,4.21
2022-12-08T15:59:35.733Z,4.64
2022-12-08T16:02:02.416Z,4.92
2022-12-08T16:07:26.008Z,5.05
2022-12-08T16:09:53.463Z,4.09
2022-12-08T16:38:01.863Z,3.50
2022-12-08T16:40:28.459Z,3.43
2022-12-08T16:42:55.103Z,3.26
2022-12-08T16:45:37.629Z,3.36
2022-12-08T16:48:14.622Z,3.18
2022-12-08T16:50:45.795Z,3.60
2022-12-08T16:53:14.817Z,4.03
2022-12-08T16:55:47.478Z,3.99
2022-12-08T16:58:14.614Z,3.96
2022-12-08T17:00:41.903Z,4.04
2022-12-08T17:03:08.799Z,3.73
2022-12-08T17:05:36.477Z,4.06
2022-12-08T17:08:03.176Z,3.74
2022-12-08T17:10:31.890Z,3.90
2022-12-08T17:13:01.822Z,4.14
2022-12-08T17:15:28.881Z,4.06
2022-12-08T17:17:55.494Z,4.44
2022-12-08T17:20:25.365Z,4.72
2022-12-08T17:23:03.594Z,4.61
2022-12-08T17:28:37.118Z,3.88
2022-12-08T17:31:14.406Z,4.56
2022-12-08T17:33:41.728Z,4.39
2022-12-08T17:36:11.435Z,4.29
2022-12-08T17:41:27.680Z,3.95
2022-12-08T17:43:54.879Z,4.83
2022-12-08T17:46:23.067Z,3.98
2022-12-08T17:48:50.127Z,4.37
2022-12-08T17:51:17.091Z,4.49
2022-12-08T17:53:44.047Z,4.58
2022-12-08T17:56:19.024Z,5.18
2022-12-08T17:58:51.295Z,5.14
2022-12-08T18:01:20.894Z,5.06
2022-12-08T18:03:47.530Z,4.84
2022-12-08T18:06:14.197Z,4.88
2022-12-08T18:08:40.846Z,4.72
2022-12-08T18:11:14.205Z,4.98
2022-12-08T18:13:40.982Z,4.56
2022-12-08T18:16:07.749Z,4.90
2022-12-08T18:18:34.452Z,4.95
2022-12-08T18:21:02.560Z,4.78
2022-12-08T18:23:29.387Z,5.27
2022-12-08T18:25:55.989Z,5.48
2022-12-08T18:28:23.739Z,5.14
2022-12-08T18:30:50.768Z,5.27
2022-12-08T18:33:17.696Z,5.74
2022-12-08T18:35:44.496Z,5.54
2022-12-08T18:38:13.698Z,5.68
2022-12-08T18:40:43.239Z,5.41
2022-12-08T18:43:09.819Z,5.51
2022-12-08T18:45:44.253Z,5.23
2022-12-08T18:48:11.538Z,5.12
2022-12-08T18:50:43.044Z,5.34
2022-12-08T19:15:08.013Z,5.17
2022-12-08T19:17:34.954Z,5.48
2022-12-08T19:20:01.792Z,5.84
2022-12-08T19:22:29.267Z,5.49
2022-12-08T19:27:34.182Z,5.94
2022-12-08T19:30:00.829Z,5.22
2022-12-08T19:32:27.474Z,5.44
2022-12-08T19:34:54.317Z,4.74
2022-12-08T19:37:21.039Z,5.20
2022-12-08T19:40:06.311Z,5.24
2022-12-08T19:42:51.480Z,4.99
2022-12-08T19:45:21.615Z,5.27
2022-12-08T19:47:48.921Z,5.14
2022-12-08T19:50:35.494Z,5.62
2022-12-08T19:53:17.987Z,4.81
2022-12-08T19:55:44.609Z,5.08
2022-12-08T19:58:11.554Z,4.60
2022-12-08T20:00:39.268Z,4.96
2022-12-08T20:25:59.401Z,4.90
2022-12-08T20:28:25.951Z,5.34
2022-12-08T20:30:52.737Z,5.52
2022-12-08T20:33:19.926Z,5.38
2022-12-08T20:35:46.917Z,5.08
2022-12-08T20:38:16.041Z,5.55
2022-12-08T20:40:44.158Z,5.26
2022-12-08T20:43:10.792Z,5.36
2022-12-08T20:45:37.359Z,5.68
2022-12-08T20:48:07.007Z,5.74
2022-12-08T20:50:33.641Z,5.70
2022-12-08T20:53:00.501Z,5.85
2022-12-08T20:55:27.229Z,5.57
2022-12-08T20:57:54.007Z,5.72
2022-12-08T21:00:23.240Z,5.96
2022-12-08T21:02:56.058Z,6.15
2022-12-08T21:05:23.530Z,5.42
2022-12-08T21:07:50.236Z,5.56
2022-12-08T21:10:17.361Z,5.53
2022-12-08T21:12:43.984Z,4.62
2022-12-08T21:15:12.501Z,5.54
2022-12-08T21:17:39.463Z,5.69
2022-12-08T21:20:10.580Z,5.84
2022-12-08T21:22:40.523Z,4.69
2022-12-08T21:25:08.639Z,4.87
2022-12-08T21:30:17.202Z,4.15
2022-12-08T21:35:25.204Z,3.48
2022-12-08T21:37:51.967Z,4.24
2022-12-08T21:40:18.973Z,4.56
2022-12-08T21:43:42.131Z,4.36
2022-12-08T21:46:39.778Z,4.25
2022-12-08T21:49:07.077Z,4.52
2022-12-08T21:51:35.390Z,4.83
2022-12-08T21:54:01.971Z,5.12
2022-12-08T21:56:28.556Z,5.29
2022-12-08T21:58:55.256Z,4.93
2022-12-08T22:01:54.001Z,3.96
2022-12-08T22:04:21.899Z,3.98
2022-12-08T22:06:48.728Z,4.68
2022-12-08T22:09:15.568Z,5.13
2022-12-08T22:12:55.353Z,4.68
2022-12-08T22:16:21.572Z,5.23
2022-12-08T22:26:54.087Z,5.25
2022-12-08T22:29:26.986Z,5.61
2022-12-08T22:31:53.594Z,5.25
2022-12-08T22:34:20.249Z,5.13
2022-12-08T22:36:49.036Z,5.61
2022-12-08T22:39:15.739Z,4.91
2022-12-08T22:41:42.259Z,5.13
2022-12-08T22:44:09.135Z,5.49
2022-12-08T22:49:25.210Z,5.82
2022-12-08T22:51:52.912Z,5.87
2022-12-08T22:54:19.564Z,5.83
2022-12-08T22:56:46.310Z,5.62
2022-12-08T22:59:12.937Z,5.52
2022-12-08T23:02:26.580Z,5.59
2022-12-08T23:08:16.159Z,5.79
2022-12-08T23:10:44.373Z,5.38
2022-12-08T23:13:12.057Z,5.66
2022-12-08T23:15:39.607Z,5.83
2022-12-08T23:18:07.588Z,5.81
2022-12-08T23:21:09.714Z,5.79
2022-12-08T23:23:36.803Z,6.00
2022-12-08T23:26:04.467Z,5.74
2022-12-08T23:28:31.080Z,5.56
2022-12-08T23:30:57.763Z,5.73
2022-12-08T23:36:58.564Z,5.80
2022-12-08T23:39:25.198Z,5.69
2022-12-08T23:41:51.773Z,5.51
2022-12-08T23:44:18.634Z,5.77
2022-12-08T23:46:45.516Z,5.91
2022-12-08T23:49:12.388Z,5.59
2022-12-08T23:51:57.741Z,5.50
2022-12-08T23:54:24.349Z,5.66
2022-12-08T23:56:51.120Z,5.82
2022-12-08T23:59:17.704Z,5.96
